Greenwood, Wisconsin
Current Conditions -  °F | °C
As of 10:21 PM on Wednesday 26 Nov 2014 (Local Time) from KMFI Reporting Station
Overcast Overcast  
Wind Chill:   Ceiling: 1600
Heat Index: 22°   Visibility: 10mi
Dew Point: 17°   Wind: 14mph
Humidity: 82%   Direction: 340°NNW
Pressure: 30.2"   Gusts: NA
Location:  44.77°N, 90.6°W
Report Text: KMFI 270421Z AUTO 34012KT 10SM OVC016 M06/M08 A3020 RMK AO2 T10561083
Loading
Personal Weather Stations






























Interactive Weather Map New forecast layout! Learn more

10-Day Weather Forecast

Advertisements
Track Severe Weather on mobile